createdAt,value
2023-02-01T00:02:23.143Z,87.57
2023-02-01T00:04:49.494Z,87.22
2023-02-01T00:07:15.791Z,86.77
2023-02-01T00:09:42.099Z,86.76
2023-02-01T00:12:08.403Z,86.86
2023-02-01T00:14:34.706Z,86.53
2023-02-01T00:17:00.995Z,86.62
2023-02-01T00:19:27.303Z,86.40
2023-02-01T00:21:53.598Z,86.20
2023-02-01T00:24:19.906Z,86.39
2023-02-01T00:26:46.931Z,86.00
2023-02-01T00:29:18.111Z,86.03
2023-02-01T00:31:44.949Z,85.74
2023-02-01T00:34:14.325Z,85.87
2023-02-01T00:36:41.742Z,86.23
2023-02-01T00:39:08.487Z,85.93
2023-02-01T00:41:34.897Z,86.01
2023-02-01T00:44:01.887Z,86.13
2023-02-01T00:46:28.697Z,86.38
2023-02-01T00:48:55.251Z,86.53
2023-02-01T00:51:25.631Z,86.35
2023-02-01T00:53:52.031Z,86.05
2023-02-01T00:56:18.375Z,86.19
2023-02-01T00:58:45.989Z,86.16
2023-02-01T01:01:24.971Z,85.74
2023-02-01T01:03:54.224Z,85.63
2023-02-01T01:06:23.430Z,85.40
2023-02-01T01:08:52.754Z,85.59
2023-02-01T01:11:21.481Z,85.50
2023-02-01T01:13:49.583Z,85.91
2023-02-01T01:16:16.144Z,85.65
2023-02-01T01:18:42.539Z,85.91
2023-02-01T01:21:10.003Z,85.51
2023-02-01T01:23:37.075Z,86.00
2023-02-01T01:26:08.204Z,85.75
2023-02-01T01:28:34.600Z,85.58
2023-02-01T01:31:01.088Z,85.63
2023-02-01T01:33:27.480Z,85.30
2023-02-01T01:35:53.824Z,85.21
2023-02-01T01:38:20.131Z,85.31
2023-02-01T01:40:47.651Z,85.39
2023-02-01T01:43:16.886Z,85.22
2023-02-01T01:45:43.391Z,85.04
2023-02-01T01:48:16.554Z,85.08
2023-02-01T01:50:47.391Z,85.14
2023-02-01T01:53:19.524Z,85.29
2023-02-01T01:55:48.021Z,85.56
2023-02-01T01:58:19.955Z,85.50
2023-02-01T02:00:48.116Z,85.08
2023-02-01T02:03:24.567Z,85.34
2023-02-01T02:05:52.943Z,85.49
2023-02-01T02:08:20.328Z,85.42
2023-02-01T02:10:49.383Z,85.72
2023-02-01T02:13:17.246Z,85.16
2023-02-01T02:15:55.824Z,85.22
2023-02-01T02:19:05.817Z,85.26
2023-02-01T02:21:55.420Z,85.45
2023-02-01T02:24:43.155Z,84.97
2023-02-01T02:27:21.642Z,85.37
2023-02-01T02:30:25.841Z,84.65
2023-02-01T02:33:19.955Z,84.95
2023-02-01T02:36:02.195Z,84.69
2023-02-01T02:38:49.980Z,84.59
2023-02-01T02:41:25.831Z,84.95
2023-02-01T02:43:59.846Z,84.85
2023-02-01T02:46:37.012Z,84.53
2023-02-01T02:49:12.107Z,84.60
2023-02-01T02:51:46.840Z,84.05
2023-02-01T02:54:16.900Z,84.23
2023-02-01T02:56:43.424Z,84.15
2023-02-01T02:59:12.063Z,83.82
2023-02-01T03:01:40.848Z,83.57
2023-02-01T03:04:07.561Z,83.51
2023-02-01T03:06:34.236Z,83.16
2023-02-01T03:09:05.602Z,83.28
2023-02-01T03:11:33.250Z,82.96
2023-02-01T03:14:03.582Z,83.09
2023-02-01T03:16:34.416Z,82.99
2023-02-01T03:19:06.546Z,82.57
2023-02-01T03:24:35.392Z,82.36
2023-02-01T03:27:23.661Z,83.05
2023-02-01T03:30:05.878Z,82.84
2023-02-01T03:32:33.140Z,82.56
2023-02-01T03:34:59.559Z,82.09
2023-02-01T03:37:28.707Z,82.40
2023-02-01T03:40:03.205Z,82.00
2023-02-01T03:42:38.025Z,82.08
2023-02-01T03:45:25.546Z,81.78
2023-02-01T03:47:56.899Z,81.41
2023-02-01T03:50:26.330Z,81.22
2023-02-01T03:53:03.007Z,81.29
2023-02-01T03:55:30.876Z,80.92
2023-02-01T03:58:02.501Z,80.67
2023-02-01T04:00:29.186Z,80.45
2023-02-01T04:02:55.772Z,80.64
2023-02-01T04:05:23.009Z,80.63
2023-02-01T04:07:49.689Z,80.69
2023-02-01T04:10:19.526Z,80.29
2023-02-01T04:12:46.098Z,80.31
2023-02-01T04:15:12.427Z,80.55
2023-02-01T04:20:04.251Z,80.97
2023-02-01T04:22:30.568Z,81.32
2023-02-01T04:24:57.000Z,81.41
2023-02-01T04:29:49.642Z,81.85
2023-02-01T04:32:17.064Z,81.93
2023-02-01T04:34:43.882Z,82.09
2023-02-01T04:37:10.216Z,82.04
2023-02-01T04:39:36.505Z,82.08
2023-02-01T04:42:02.910Z,82.62
2023-02-01T04:44:29.224Z,83.91
2023-02-01T04:46:55.538Z,85.12
2023-02-01T04:49:21.976Z,84.73
2023-02-01T04:51:48.975Z,85.30
2023-02-01T04:54:15.365Z,85.28
2023-02-01T04:56:41.684Z,84.67
2023-02-01T04:59:07.982Z,85.65
2023-02-01T05:01:34.405Z,85.98
2023-02-01T05:04:00.773Z,86.88
2023-02-01T05:06:27.079Z,87.69
2023-02-01T05:08:53.377Z,87.93
2023-02-01T05:11:19.709Z,87.68
2023-02-01T05:13:46.021Z,87.66
2023-02-01T05:16:12.434Z,88.78
2023-02-01T05:18:38.823Z,88.57
2023-02-01T05:21:05.347Z,89.01
2023-02-01T05:23:31.718Z,88.80
2023-02-01T05:26:01.691Z,88.86
2023-02-01T05:28:28.986Z,88.30
2023-02-01T05:30:55.621Z,88.07
2023-02-01T05:33:22.027Z,88.45
2023-02-01T05:35:48.337Z,87.80
2023-02-01T05:38:14.670Z,88.09
2023-02-01T05:40:40.984Z,88.33
2023-02-01T05:43:07.316Z,88.70
2023-02-01T05:45:33.641Z,88.34
2023-02-01T05:47:59.964Z,88.77
2023-02-01T05:50:26.284Z,88.66
2023-02-01T05:52:52.796Z,89.36
2023-02-01T05:55:19.137Z,90.03
2023-02-01T05:57:45.448Z,90.50
2023-02-01T06:00:12.233Z,91.13
2023-02-01T06:02:38.587Z,90.57
2023-02-01T06:05:05.297Z,90.51
2023-02-01T06:07:31.609Z,89.78
2023-02-01T06:09:57.919Z,89.40
2023-02-01T06:12:24.227Z,89.24
2023-02-01T06:14:50.529Z,90.01
2023-02-01T06:17:16.993Z,90.00
2023-02-01T06:19:43.289Z,90.51
2023-02-01T06:22:09.614Z,90.71
2023-02-01T06:24:35.937Z,91.49
2023-02-01T06:27:02.247Z,91.20
2023-02-01T06:29:28.552Z,90.77
2023-02-01T06:31:54.937Z,91.10
2023-02-01T06:34:22.348Z,89.97
2023-02-01T06:36:48.685Z,88.92
2023-02-01T06:39:15.096Z,89.18
2023-02-01T06:41:41.382Z,89.45
2023-02-01T06:44:07.848Z,89.19
2023-02-01T06:46:34.221Z,88.09
2023-02-01T06:49:00.673Z,88.60
2023-02-01T06:51:28.874Z,87.94
2023-02-01T06:53:55.557Z,87.37
2023-02-01T06:56:22.272Z,87.35
2023-02-01T06:58:49.099Z,85.74
2023-02-01T07:01:16.751Z,86.70
2023-02-01T07:03:43.289Z,86.20
2023-02-01T07:06:10.340Z,86.17
2023-02-01T07:08:38.532Z,85.52
2023-02-01T07:11:06.698Z,85.67
2023-02-01T07:13:33.200Z,85.64
2023-02-01T07:16:04.855Z,85.07
2023-02-01T07:18:32.283Z,84.94
2023-02-01T07:20:58.705Z,84.66
2023-02-01T07:23:26.480Z,84.61
2023-02-01T07:25:57.711Z,84.86
2023-02-01T07:28:24.699Z,84.25
2023-02-01T07:30:51.073Z,83.24
2023-02-01T07:33:19.582Z,84.01
2023-02-01T07:35:46.903Z,83.24
2023-02-01T07:38:13.295Z,83.43
2023-02-01T07:40:39.641Z,83.10
2023-02-01T07:43:06.105Z,83.08
2023-02-01T07:45:34.225Z,83.08
2023-02-01T07:48:02.609Z,83.34
2023-02-01T07:50:29.440Z,82.86
2023-02-01T07:52:55.809Z,82.74
2023-02-01T07:55:22.476Z,83.59
2023-02-01T07:57:48.781Z,83.44
2023-02-01T08:00:15.592Z,82.91
2023-02-01T08:02:41.899Z,82.42
2023-02-01T08:05:09.051Z,82.15
2023-02-01T08:07:35.396Z,81.40
2023-02-01T08:10:01.899Z,82.10
2023-02-01T08:12:28.299Z,82.54
2023-02-01T08:14:55.268Z,81.89
2023-02-01T08:17:21.614Z,82.18
2023-02-01T08:19:47.915Z,81.59
2023-02-01T08:22:14.234Z,81.17
2023-02-01T08:24:40.527Z,81.13
2023-02-01T08:27:06.901Z,80.50
2023-02-01T08:29:33.290Z,80.13
2023-02-01T08:31:59.650Z,79.50
2023-02-01T08:34:25.995Z,79.99
2023-02-01T08:36:53.775Z,79.83
2023-02-01T08:39:20.078Z,79.77
2023-02-01T08:41:46.385Z,80.74
2023-02-01T08:44:12.715Z,81.07
2023-02-01T08:46:39.137Z,80.68
2023-02-01T08:49:05.427Z,80.63
2023-02-01T08:51:31.754Z,79.86
2023-02-01T08:53:58.072Z,80.33
2023-02-01T08:56:24.452Z,79.20
2023-02-01T08:58:50.789Z,78.77
2023-02-01T09:01:18.324Z,78.19
2023-02-01T09:03:45.245Z,78.86
2023-02-01T09:06:14.630Z,78.92
2023-02-01T09:08:41.801Z,79.47
2023-02-01T09:11:12.944Z,78.08
2023-02-01T09:13:39.307Z,78.57
2023-02-01T09:16:06.367Z,78.74
2023-02-01T09:18:32.833Z,78.98
2023-02-01T09:20:59.128Z,77.98
2023-02-01T09:23:25.496Z,77.89
2023-02-01T09:25:51.863Z,77.11
2023-02-01T09:28:19.016Z,78.05
2023-02-01T09:30:45.676Z,76.46
2023-02-01T09:33:12.041Z,76.55
2023-02-01T09:35:38.367Z,76.60
2023-02-01T09:38:04.672Z,76.33
2023-02-01T09:40:31.758Z,77.18
2023-02-01T09:43:08.625Z,76.52
2023-02-01T09:45:35.053Z,75.89
2023-02-01T09:48:10.587Z,76.40
2023-02-01T09:50:40.465Z,75.80
2023-02-01T09:53:25.854Z,75.66
2023-02-01T09:55:56.307Z,75.60
2023-02-01T09:58:48.474Z,75.07
2023-02-01T10:01:20.384Z,75.04
2023-02-01T10:03:47.417Z,74.32
2023-02-01T10:06:46.015Z,74.48
2023-02-01T10:09:21.007Z,74.37
2023-02-01T10:12:05.551Z,74.68
2023-02-01T10:15:08.869Z,73.78
2023-02-01T10:17:50.071Z,73.74
2023-02-01T10:20:34.032Z,73.69
2023-02-01T10:23:33.465Z,74.44
2023-02-01T10:26:19.168Z,74.43
2023-02-01T10:28:50.381Z,74.28
2023-02-01T10:31:18.181Z,74.63
2023-02-01T10:33:44.520Z,74.91
2023-02-01T10:36:20.667Z,75.14
2023-02-01T10:38:47.184Z,75.33
2023-02-01T10:41:20.484Z,75.27
2023-02-01T10:43:51.747Z,75.63
2023-02-01T10:46:18.097Z,75.46
2023-02-01T10:48:44.754Z,74.77
2023-02-01T10:51:17.148Z,75.34
2023-02-01T10:54:07.325Z,74.46
2023-02-01T10:56:38.696Z,74.16
2023-02-01T10:59:07.747Z,74.81
2023-02-01T11:01:45.530Z,75.20
2023-02-01T11:04:13.889Z,74.95
2023-02-01T11:06:42.451Z,74.68
2023-02-01T11:09:08.739Z,74.18
2023-02-01T11:11:55.384Z,75.12
2023-02-01T11:14:41.977Z,75.60
2023-02-01T11:17:32.848Z,75.61
2023-02-01T11:20:01.583Z,74.84
2023-02-01T11:22:29.148Z,74.68
2023-02-01T11:24:56.145Z,74.26
2023-02-01T11:27:27.446Z,74.62
2023-02-01T11:30:00.205Z,75.18
2023-02-01T11:32:28.162Z,74.58
2023-02-01T11:35:02.587Z,74.76
2023-02-01T11:37:34.048Z,74.35
2023-02-01T11:40:02.481Z,74.94
2023-02-01T11:42:30.397Z,75.15
2023-02-01T11:45:19.413Z,74.99
2023-02-01T11:47:45.793Z,75.92
2023-02-01T11:50:44.005Z,76.90
2023-02-01T11:53:18.712Z,78.41
2023-02-01T11:56:00.936Z,79.21
2023-02-01T11:58:56.060Z,80.12
2023-02-01T12:01:54.563Z,80.95
2023-02-01T12:04:49.067Z,82.61
2023-02-01T12:07:30.177Z,82.75
2023-02-01T12:10:17.910Z,83.08
2023-02-01T12:12:53.708Z,84.25
2023-02-01T12:15:52.993Z,84.93
2023-02-01T12:18:36.152Z,85.01
2023-02-01T12:21:17.435Z,84.88
2023-02-01T12:24:08.014Z,86.54
2023-02-01T12:26:37.343Z,86.51
2023-02-01T12:29:10.717Z,86.12
2023-02-01T12:31:55.606Z,85.90
2023-02-01T12:34:21.969Z,85.70
2023-02-01T12:36:59.521Z,86.35
2023-02-01T12:39:43.086Z,87.23
2023-02-01T12:42:37.010Z,87.82
2023-02-01T12:45:31.799Z,88.45
2023-02-01T12:48:25.299Z,89.03
2023-02-01T12:50:57.980Z,89.63
2023-02-01T12:53:31.668Z,90.00
2023-02-01T12:56:02.868Z,91.08
2023-02-01T12:58:42.579Z,91.94
2023-02-01T13:01:18.568Z,92.83
2023-02-01T13:04:07.170Z,93.19
2023-02-01T13:06:41.907Z,93.14
2023-02-01T13:09:27.661Z,93.66
2023-02-01T13:11:58.316Z,93.93
2023-02-01T13:14:38.906Z,94.08
2023-02-01T13:17:11.274Z,94.26
2023-02-01T13:19:52.048Z,94.15
2023-02-01T13:22:26.168Z,94.50
2023-02-01T13:24:59.606Z,94.44
2023-02-01T13:27:29.674Z,94.14
2023-02-01T13:30:04.294Z,94.68
2023-02-01T13:33:50.417Z,95.05
2023-02-01T13:35:54.985Z,94.95
2023-02-01T13:38:46.823Z,94.36
2023-02-01T13:41:29.306Z,95.16
2023-02-01T13:44:12.016Z,95.81
2023-02-01T13:46:45.059Z,95.58
2023-02-01T13:49:23.251Z,95.68
2023-02-01T13:51:55.493Z,94.59
2023-02-01T13:54:38.074Z,93.43
2023-02-01T13:57:30.706Z,93.14
2023-02-01T14:00:27.344Z,92.62
2023-02-01T14:03:09.251Z,91.75
2023-02-01T14:05:42.051Z,92.25
2023-02-01T14:08:15.988Z,92.17
2023-02-01T14:10:48.861Z,92.73
2023-02-01T14:13:42.620Z,92.33
2023-02-01T14:16:17.318Z,92.74
2023-02-01T14:18:43.657Z,93.11
2023-02-01T14:21:22.951Z,93.22
2023-02-01T14:24:08.360Z,93.72
2023-02-01T14:26:38.092Z,93.84
2023-02-01T14:29:22.304Z,92.97
2023-02-01T14:32:02.431Z,92.54
2023-02-01T14:34:47.977Z,93.10
2023-02-01T14:37:21.992Z,91.98
2023-02-01T14:39:57.131Z,91.36
2023-02-01T14:42:43.796Z,89.69
2023-02-01T14:45:19.016Z,89.40
2023-02-01T14:47:47.492Z,87.66
2023-02-01T14:50:33.421Z,87.62
2023-02-01T14:53:09.111Z,87.77
2023-02-01T14:55:50.540Z,87.99
2023-02-01T14:58:32.422Z,87.10
2023-02-01T15:01:02.945Z,87.31
2023-02-01T15:03:41.408Z,87.20
2023-02-01T15:06:27.307Z,86.00
2023-02-01T15:08:58.169Z,86.38
2023-02-01T15:11:24.592Z,85.84
2023-02-01T15:13:53.824Z,86.42
2023-02-01T15:16:21.700Z,86.73
2023-02-01T15:18:48.045Z,86.67
2023-02-01T15:21:27.041Z,86.26
2023-02-01T15:24:12.243Z,86.07
2023-02-01T15:26:38.766Z,85.64
2023-02-01T15:29:05.167Z,86.00
2023-02-01T15:31:38.715Z,85.50
2023-02-01T15:34:05.410Z,85.62
2023-02-01T15:36:31.734Z,85.62
2023-02-01T15:39:16.592Z,85.71
2023-02-01T15:41:43.899Z,85.93
2023-02-01T15:44:20.377Z,85.20
2023-02-01T15:46:49.350Z,85.04
2023-02-01T15:49:37.217Z,84.83
2023-02-01T15:52:09.512Z,84.82
2023-02-01T15:54:49.616Z,84.12
2023-02-01T15:57:35.009Z,84.72
2023-02-01T16:00:06.037Z,85.32
2023-02-01T16:02:36.548Z,86.90
2023-02-01T16:05:04.464Z,86.82
2023-02-01T16:07:33.090Z,87.88
2023-02-01T16:10:01.960Z,87.53
2023-02-01T16:12:35.314Z,87.45
2023-02-01T16:15:02.325Z,87.40
2023-02-01T16:17:28.665Z,88.22
2023-02-01T16:19:54.981Z,87.57
2023-02-01T16:22:21.311Z,87.61
2023-02-01T16:24:47.654Z,87.41
2023-02-01T16:27:14.228Z,87.37
2023-02-01T16:29:42.149Z,86.78
2023-02-01T16:32:21.301Z,86.30
2023-02-01T16:34:48.497Z,79.93
2023-02-01T16:37:20.450Z,80.46
2023-02-01T16:39:46.772Z,82.83
2023-02-01T16:42:14.543Z,84.59
2023-02-01T16:44:41.292Z,85.76
2023-02-01T16:47:27.881Z,86.57
2023-02-01T16:49:54.184Z,86.95
2023-02-01T16:52:23.488Z,87.23
2023-02-01T16:54:49.875Z,87.60
2023-02-01T16:57:19.667Z,88.50
2023-02-01T16:59:46.011Z,88.88
2023-02-01T17:02:14.922Z,89.50
2023-02-01T17:04:41.891Z,89.43
2023-02-01T17:07:20.821Z,89.61
2023-02-01T17:09:48.042Z,89.92
2023-02-01T17:12:28.729Z,89.53
2023-02-01T17:14:55.086Z,89.79
2023-02-01T17:17:32.795Z,89.56
2023-02-01T17:20:04.329Z,88.88
2023-02-01T17:22:30.627Z,89.47
2023-02-01T17:24:56.957Z,88.83
2023-02-01T17:27:23.261Z,89.02
2023-02-01T17:29:49.705Z,89.49
2023-02-01T17:32:19.957Z,89.28
2023-02-01T17:34:46.385Z,88.43
2023-02-01T17:37:27.472Z,86.86
2023-02-01T17:39:53.838Z,84.04
2023-02-01T17:42:20.557Z,84.13
2023-02-01T17:44:47.093Z,84.77
2023-02-01T17:47:13.387Z,86.08
2023-02-01T17:49:39.705Z,86.03
2023-02-01T17:52:06.644Z,86.08
2023-02-01T17:54:33.024Z,85.73
2023-02-01T17:57:00.562Z,85.49
2023-02-01T17:59:27.482Z,85.05
2023-02-01T18:01:53.777Z,85.27
2023-02-01T18:04:20.087Z,85.40
2023-02-01T18:06:46.413Z,85.74
2023-02-01T18:09:12.707Z,85.52
2023-02-01T18:11:39.020Z,85.17
2023-02-01T18:14:05.368Z,85.39
2023-02-01T18:16:33.225Z,85.26
2023-02-01T18:18:59.984Z,85.36
2023-02-01T18:21:26.514Z,84.74
2023-02-01T18:23:52.839Z,84.60
2023-02-01T18:26:19.254Z,84.55
2023-02-01T18:28:45.695Z,84.58
2023-02-01T18:31:32.291Z,84.42
2023-02-01T18:34:00.197Z,83.40
2023-02-01T18:36:28.179Z,83.57
2023-02-01T18:38:54.492Z,83.80
2023-02-01T18:41:21.389Z,83.52
2023-02-01T18:43:48.120Z,83.91
2023-02-01T18:46:14.747Z,83.42
2023-02-01T18:48:42.240Z,83.35
2023-02-01T18:51:13.347Z,83.51
2023-02-01T18:53:40.255Z,83.10
2023-02-01T18:56:06.921Z,83.61
2023-02-01T18:58:33.241Z,83.20
2023-02-01T19:01:06.458Z,83.52
2023-02-01T19:03:32.866Z,83.49
2023-02-01T19:06:06.811Z,82.60
2023-02-01T19:08:33.155Z,82.62
2023-02-01T19:10:59.594Z,83.08
2023-02-01T19:13:26.367Z,83.38
2023-02-01T19:15:52.830Z,83.64
2023-02-01T19:18:19.146Z,83.03
2023-02-01T19:20:46.936Z,83.64
2023-02-01T19:23:14.127Z,83.05
2023-02-01T19:25:44.272Z,82.99
2023-02-01T19:28:10.674Z,82.76
2023-02-01T19:30:37.133Z,83.54
2023-02-01T19:33:03.516Z,83.61
2023-02-01T19:35:30.368Z,82.72
2023-02-01T19:37:56.735Z,83.19
2023-02-01T19:40:23.265Z,82.88
2023-02-01T19:42:49.575Z,82.69
2023-02-01T19:45:16.288Z,82.65
2023-02-01T19:47:42.684Z,82.69
2023-02-01T19:50:10.900Z,82.11
2023-02-01T19:52:37.216Z,81.78
2023-02-01T19:55:04.616Z,80.49
2023-02-01T19:57:31.419Z,80.98
2023-02-01T19:59:57.733Z,81.03
2023-02-01T20:02:23.325Z,81.14
2023-02-01T20:04:49.636Z,80.83
2023-02-01T20:07:15.931Z,81.20
2023-02-01T20:09:42.263Z,81.35
2023-02-01T20:12:09.750Z,81.59
2023-02-01T20:14:37.021Z,81.48
2023-02-01T20:17:04.923Z,81.47
2023-02-01T20:19:32.088Z,81.11
2023-02-01T20:21:58.427Z,81.32
2023-02-01T20:24:25.010Z,81.05
2023-02-01T20:26:52.349Z,81.72
2023-02-01T20:29:19.620Z,80.37
2023-02-01T20:31:46.169Z,80.49
2023-02-01T20:34:13.348Z,80.84
2023-02-01T20:36:40.550Z,80.33
2023-02-01T20:39:06.868Z,80.51
2023-02-01T20:41:33.198Z,80.59
2023-02-01T20:43:59.600Z,81.28
2023-02-01T20:46:25.961Z,81.88
2023-02-01T20:48:52.284Z,81.70
2023-02-01T20:51:20.487Z,81.09
2023-02-01T20:53:48.292Z,80.97
2023-02-01T20:56:15.830Z,80.89
2023-02-01T20:58:42.800Z,81.23
2023-02-01T21:01:09.444Z,80.67
2023-02-01T21:03:36.019Z,80.60
2023-02-01T21:06:04.230Z,79.81
2023-02-01T21:08:31.399Z,79.76
2023-02-01T21:11:06.915Z,79.76
2023-02-01T21:13:35.312Z,79.75
2023-02-01T21:16:02.952Z,80.00
2023-02-01T21:18:30.240Z,80.35
2023-02-01T21:20:57.685Z,80.05
2023-02-01T21:23:24.003Z,79.36
2023-02-01T21:25:50.481Z,80.26
2023-02-01T21:28:17.093Z,80.37
2023-02-01T21:30:43.431Z,80.19
2023-02-01T21:33:09.753Z,81.27
2023-02-01T21:35:40.085Z,80.60
2023-02-01T21:38:06.411Z,80.36
2023-02-01T21:40:32.725Z,80.44
2023-02-01T21:42:59.024Z,81.19
2023-02-01T21:45:25.714Z,81.04
2023-02-01T21:47:52.277Z,81.17
2023-02-01T21:50:19.999Z,80.31
2023-02-01T21:52:46.682Z,80.52
2023-02-01T21:55:14.067Z,80.51
2023-02-01T21:57:40.724Z,79.56
2023-02-01T22:00:08.155Z,79.96
2023-02-01T22:02:35.074Z,79.57
2023-02-01T22:05:03.209Z,79.13
2023-02-01T22:07:29.535Z,79.61
2023-02-01T22:09:55.874Z,79.46
2023-02-01T22:12:22.235Z,78.61
2023-02-01T22:14:48.555Z,78.71
2023-02-01T22:17:15.082Z,78.85
2023-02-01T22:19:41.815Z,78.69
2023-02-01T22:22:08.405Z,79.35
2023-02-01T22:24:34.776Z,78.90
2023-02-01T22:27:13.744Z,78.91
2023-02-01T22:29:41.600Z,79.59
2023-02-01T22:32:08.480Z,79.51
2023-02-01T22:34:34.796Z,80.02
2023-02-01T22:37:01.079Z,79.43
2023-02-01T22:39:27.456Z,79.21
2023-02-01T22:41:53.760Z,79.81
2023-02-01T22:44:20.126Z,79.83
2023-02-01T22:46:46.593Z,80.01
2023-02-01T22:49:13.229Z,79.91
2023-02-01T22:51:39.577Z,79.94
2023-02-01T22:54:05.996Z,79.97
2023-02-01T22:56:34.935Z,80.04
2023-02-01T22:59:04.961Z,80.45
2023-02-01T23:01:32.018Z,80.12
2023-02-01T23:04:00.038Z,80.90
2023-02-01T23:06:26.804Z,81.04
2023-02-01T23:09:01.378Z,81.57
2023-02-01T23:11:28.699Z,81.67
2023-02-01T23:13:55.743Z,81.88
2023-02-01T23:16:22.500Z,82.57
2023-02-01T23:18:49.257Z,82.43
2023-02-01T23:21:18.440Z,83.74
2023-02-01T23:23:52.876Z,83.67
2023-02-01T23:26:19.961Z,84.39
2023-02-01T23:28:46.951Z,83.72
2023-02-01T23:31:14.290Z,84.01
2023-02-01T23:33:41.034Z,84.51
2023-02-01T23:36:11.074Z,84.87
2023-02-01T23:38:37.464Z,85.53
2023-02-01T23:41:06.381Z,85.46
2023-02-01T23:43:33.048Z,85.25
2023-02-01T23:45:59.395Z,85.85
2023-02-01T23:48:28.246Z,86.53
2023-02-01T23:50:54.613Z,86.45
2023-02-01T23:53:20.934Z,86.35
2023-02-01T23:55:51.574Z,86.32
2023-02-01T23:58:17.949Z,85.59
